createdAt,value
2022-09-18T00:01:37.055Z,13.13
2022-09-18T00:04:07.579Z,13.27
2022-09-18T00:06:39.162Z,13.43
2022-09-18T00:09:12.337Z,13.42
2022-09-18T00:11:43.731Z,13.15
2022-09-18T00:14:15.745Z,13.21
2022-09-18T00:16:43.410Z,13.44
2022-09-18T00:19:13.950Z,13.37
2022-09-18T00:21:46.370Z,13.33
2022-09-18T00:24:14.110Z,13.35
2022-09-18T00:26:41.284Z,13.28
2022-09-18T00:29:08.381Z,13.38
2022-09-18T00:31:53.116Z,13.34
2022-09-18T00:34:48.613Z,13.39
2022-09-18T00:37:28.658Z,13.44
2022-09-18T00:40:20.347Z,13.58
2022-09-18T00:42:50.214Z,13.47
2022-09-18T00:45:33.132Z,13.64
2022-09-18T00:48:24.741Z,13.69
2022-09-18T00:54:36.672Z,13.56
2022-09-18T00:57:22.803Z,13.49
2022-09-18T01:00:03.233Z,13.49
2022-09-18T01:02:41.021Z,13.21
2022-09-18T01:05:25.756Z,13.32
2022-09-18T01:08:39.534Z,13.18
2022-09-18T01:11:56.183Z,13.21
2022-09-18T01:15:11.719Z,13.08
2022-09-18T01:18:27.059Z,12.81
2022-09-18T01:22:06.743Z,12.87
2022-09-18T01:25:26.349Z,12.64
2022-09-18T01:28:39.215Z,12.67
2022-09-18T01:32:08.573Z,12.63
2022-09-18T01:38:14.637Z,12.59
2022-09-18T01:41:05.192Z,12.67
2022-09-18T01:44:12.888Z,12.61
2022-09-18T01:47:09.176Z,12.59
2022-09-18T01:50:08.561Z,12.44
2022-09-18T01:53:33.867Z,12.36
2022-09-18T01:59:10.491Z,12.63
2022-09-18T02:01:51.712Z,12.70
2022-09-18T02:04:56.784Z,12.59
2022-09-18T02:08:02.026Z,12.60
2022-09-18T02:14:25.411Z,12.44
2022-09-18T02:17:41.873Z,12.57
2022-09-18T02:23:45.768Z,12.59
2022-09-18T02:26:45.425Z,12.44
2022-09-18T02:29:30.039Z,12.52
2022-09-18T02:32:18.424Z,12.28
2022-09-18T02:35:08.511Z,12.08
2022-09-18T02:38:01.877Z,12.07
2022-09-18T02:43:44.440Z,12.19
2022-09-18T02:47:17.154Z,12.21
2022-09-18T02:50:08.851Z,12.13
2022-09-18T02:52:47.131Z,12.09
2022-09-18T02:55:31.620Z,11.95
2022-09-18T02:58:10.749Z,11.87
2022-09-18T03:00:59.503Z,12.06
2022-09-18T03:03:39.756Z,11.84
2022-09-18T03:06:20.216Z,12.02
2022-09-18T03:09:04.580Z,11.95
2022-09-18T03:11:36.386Z,12.11
2022-09-18T03:14:13.393Z,12.13
2022-09-18T03:16:44.677Z,12.17
2022-09-18T03:19:34.434Z,12.35
2022-09-18T03:22:10.405Z,12.33
2022-09-18T03:27:28.500Z,12.57
2022-09-18T03:29:58.757Z,12.43
2022-09-18T03:32:28.183Z,12.28
2022-09-18T03:35:06.176Z,12.31
2022-09-18T03:37:49.429Z,12.42
2022-09-18T03:40:24.429Z,12.45
2022-09-18T03:42:52.322Z,12.55
2022-09-18T03:45:50.549Z,12.64
2022-09-18T03:48:21.635Z,12.66
2022-09-18T03:50:55.500Z,12.66
2022-09-18T03:53:26.462Z,12.67
2022-09-18T03:56:02.721Z,12.76
2022-09-18T03:58:49.737Z,12.65
2022-09-18T04:01:17.698Z,12.29
2022-09-18T04:04:00.411Z,12.32
2022-09-18T04:06:33.761Z,12.35
2022-09-18T04:09:22.526Z,12.33
2022-09-18T04:11:51.903Z,12.44
2022-09-18T04:14:19.355Z,12.61
2022-09-18T04:17:00.414Z,12.34
2022-09-18T04:19:55.818Z,12.24
2022-09-18T04:22:35.276Z,12.06
2022-09-18T04:25:06.789Z,12.41
2022-09-18T04:28:00.024Z,12.15
2022-09-18T04:30:41.332Z,12.09
2022-09-18T04:33:09.416Z,11.88
2022-09-18T04:35:38.550Z,11.88
2022-09-18T04:38:15.476Z,11.96
2022-09-18T04:41:10.897Z,11.82
2022-09-18T04:43:43.683Z,12.11
2022-09-18T04:46:20.030Z,12.13
2022-09-18T04:48:50.921Z,11.87
2022-09-18T04:51:45.326Z,11.77
2022-09-18T04:57:21.220Z,11.57
2022-09-18T04:59:53.633Z,11.58
2022-09-18T05:02:25.201Z,11.69
2022-09-18T05:04:52.830Z,11.67
2022-09-18T05:07:20.616Z,11.66
2022-09-18T05:09:58.904Z,11.49
2022-09-18T05:12:32.088Z,11.57
2022-09-18T05:15:05.422Z,11.55
2022-09-18T05:17:36.311Z,11.81
2022-09-18T05:20:04.096Z,12.09
2022-09-18T05:22:43.940Z,12.14
2022-09-18T05:25:16.340Z,12.28
2022-09-18T05:27:55.574Z,12.09
2022-09-18T05:30:31.325Z,12.09
2022-09-18T05:33:30.449Z,12.03
2022-09-18T05:36:34.812Z,12.05
2022-09-18T05:42:10.208Z,12.18
2022-09-18T05:44:45.461Z,12.29
2022-09-18T05:47:15.844Z,12.70
2022-09-18T05:49:49.963Z,12.85
2022-09-18T05:52:20.282Z,12.93
2022-09-18T05:54:53.076Z,13.54
2022-09-18T05:57:20.209Z,13.86
2022-09-18T06:00:10.798Z,13.82
2022-09-18T06:02:41.444Z,14.52
2022-09-18T06:05:16.328Z,14.99
2022-09-18T06:07:46.447Z,14.99
2022-09-18T06:10:21.826Z,14.90
2022-09-18T06:12:52.188Z,14.90
2022-09-18T06:15:22.457Z,14.52
2022-09-18T06:18:10.184Z,14.31
2022-09-18T06:21:24.857Z,14.10
2022-09-18T06:24:19.149Z,14.16
2022-09-18T06:27:03.091Z,13.89
2022-09-18T06:29:58.230Z,13.95
2022-09-18T06:32:44.802Z,14.71
2022-09-18T06:35:23.534Z,16.55
2022-09-18T06:38:07.275Z,17.56
2022-09-18T06:40:44.163Z,17.79
2022-09-18T06:43:14.488Z,16.69
2022-09-18T06:46:18.134Z,15.66
2022-09-18T06:48:52.061Z,15.94
2022-09-18T06:51:40.496Z,15.37
2022-09-18T06:54:24.575Z,15.06
2022-09-18T06:57:45.606Z,15.30
2022-09-18T07:00:35.214Z,17.47
2022-09-18T07:03:45.197Z,19.08
2022-09-18T07:06:53.756Z,19.04
2022-09-18T07:09:34.059Z,19.51
2022-09-18T07:12:23.534Z,19.92
2022-09-18T07:15:10.235Z,19.76
2022-09-18T07:17:49.820Z,18.87
2022-09-18T07:23:23.121Z,16.44
2022-09-18T07:25:58.426Z,15.87
2022-09-18T07:28:59.171Z,15.50
2022-09-18T07:31:31.079Z,15.41
2022-09-18T07:34:07.016Z,15.26
2022-09-18T07:36:46.219Z,15.33
2022-09-18T07:39:14.070Z,15.49
2022-09-18T07:41:58.042Z,15.79
2022-09-18T07:44:43.125Z,15.85
2022-09-18T07:47:18.804Z,15.38
2022-09-18T07:50:08.641Z,15.48
2022-09-18T07:52:38.763Z,18.23
2022-09-18T07:55:23.111Z,18.45
2022-09-18T07:58:22.810Z,17.75
2022-09-18T08:01:03.303Z,16.80
2022-09-18T08:03:36.885Z,16.65
2022-09-18T08:06:20.260Z,17.13
2022-09-18T08:09:10.476Z,16.40
2022-09-18T08:11:49.896Z,16.08
2022-09-18T08:14:20.246Z,15.64
2022-09-18T08:17:12.547Z,15.45
2022-09-18T08:20:00.441Z,15.57
2022-09-18T08:22:33.171Z,15.39
2022-09-18T08:25:14.847Z,15.43
2022-09-18T08:27:57.930Z,18.58
2022-09-18T08:30:30.850Z,20.49
2022-09-18T08:33:30.879Z,19.80
2022-09-18T08:38:56.059Z,16.97
2022-09-18T08:42:26.142Z,17.29
2022-09-18T08:45:27.326Z,19.81
2022-09-18T08:48:31.667Z,18.76
2022-09-18T08:51:19.374Z,17.49
2022-09-18T08:55:01.517Z,16.51
2022-09-18T08:57:49.373Z,19.82
2022-09-18T09:01:48.814Z,20.30
2022-09-18T09:04:45.048Z,21.54
2022-09-18T09:08:25.724Z,22.01
2022-09-18T09:12:04.503Z,25.26
2022-09-18T09:19:31.450Z,30.22
2022-09-18T09:22:52.282Z,30.35
2022-09-18T09:25:53.055Z,29.86
2022-09-18T09:29:21.036Z,29.45
2022-09-18T09:32:27.225Z,27.13
2022-09-18T09:35:40.280Z,26.68
2022-09-18T09:38:39.688Z,25.00
2022-09-18T09:41:51.742Z,27.76
2022-09-18T09:44:47.909Z,27.10
2022-09-18T09:47:58.243Z,26.24
2022-09-18T09:51:04.412Z,23.12
2022-09-18T09:53:42.793Z,21.98
2022-09-18T09:56:34.824Z,21.01
2022-09-18T09:59:42.530Z,19.48
2022-09-18T10:02:55.131Z,18.68
2022-09-18T10:05:49.263Z,18.20
2022-09-18T10:09:31.518Z,17.75
2022-09-18T10:12:38.908Z,17.25
2022-09-18T10:15:45.232Z,17.03
2022-09-18T10:18:24.231Z,16.66
2022-09-18T10:21:04.453Z,16.38
2022-09-18T10:23:53.794Z,16.38
2022-09-18T10:26:56.978Z,15.98
2022-09-18T10:29:42.391Z,15.85
2022-09-18T10:32:46.344Z,15.29
2022-09-18T10:35:41.819Z,15.29
2022-09-18T10:38:43.248Z,14.58
2022-09-18T10:41:32.728Z,14.43
2022-09-18T10:44:52.742Z,14.26
2022-09-18T10:47:45.432Z,14.28
2022-09-18T10:50:34.483Z,14.04
2022-09-18T10:53:43.380Z,14.31
2022-09-18T10:56:40.208Z,14.41
2022-09-18T10:59:52.371Z,15.32
2022-09-18T11:02:27.590Z,20.79
2022-09-18T11:05:05.021Z,24.74
2022-09-18T11:07:55.827Z,26.26
2022-09-18T11:10:38.865Z,28.32
2022-09-18T11:13:11.854Z,30.03
2022-09-18T11:16:03.831Z,30.45
2022-09-18T11:18:36.121Z,30.50
2022-09-18T11:21:10.606Z,31.67
2022-09-18T11:23:50.531Z,33.31
2022-09-18T11:26:34.741Z,32.96
2022-09-18T11:29:32.212Z,32.64
2022-09-18T11:32:26.157Z,31.76
2022-09-18T11:35:08.334Z,29.66
2022-09-18T11:38:16.102Z,30.38
2022-09-18T11:40:54.828Z,32.46
2022-09-18T11:44:04.701Z,33.83
2022-09-18T11:46:51.608Z,34.56
2022-09-18T11:50:14.192Z,34.28
2022-09-18T11:56:00.364Z,35.43
2022-09-18T11:58:58.675Z,34.12
2022-09-18T12:01:38.661Z,34.10
2022-09-18T12:05:08.966Z,32.72
2022-09-18T12:07:48.016Z,30.77
2022-09-18T12:11:05.787Z,29.43
2022-09-18T12:13:36.726Z,29.13
2022-09-18T12:16:36.536Z,30.53
2022-09-18T12:19:52.126Z,33.03
2022-09-18T12:22:32.183Z,32.77
2022-09-18T12:24:59.493Z,31.96
2022-09-18T12:27:55.550Z,30.90
2022-09-18T12:30:34.142Z,30.26
2022-09-18T12:33:34.098Z,30.27
2022-09-18T12:36:38.646Z,30.53
2022-09-18T12:40:07.093Z,29.26
2022-09-18T12:43:11.936Z,26.74
2022-09-18T12:46:23.739Z,27.50
2022-09-18T12:49:47.646Z,26.21
2022-09-18T12:53:08.474Z,27.12
2022-09-18T12:55:59.745Z,28.30
2022-09-18T12:59:01.651Z,25.62
2022-09-18T13:01:48.358Z,24.45
2022-09-18T13:04:34.554Z,25.32
2022-09-18T13:08:14.002Z,26.15
2022-09-18T13:10:54.749Z,25.51
2022-09-18T13:13:53.798Z,24.56
2022-09-18T13:17:13.017Z,24.38
2022-09-18T13:19:59.814Z,24.57
2022-09-18T13:22:43.506Z,22.66
2022-09-18T13:25:37.882Z,20.89
2022-09-18T13:28:18.099Z,19.69
2022-09-18T13:34:21.384Z,19.19
2022-09-18T13:37:43.331Z,19.13
2022-09-18T13:40:58.347Z,20.52
2022-09-18T13:43:49.462Z,21.21
2022-09-18T13:46:49.361Z,20.50
2022-09-18T13:49:59.034Z,20.20
2022-09-18T13:52:42.568Z,19.62
2022-09-18T13:55:18.627Z,19.34
2022-09-18T13:57:50.203Z,19.30
2022-09-18T14:00:24.383Z,19.15
2022-09-18T14:03:14.892Z,20.76
2022-09-18T14:05:47.231Z,21.02
2022-09-18T14:08:35.163Z,21.91
2022-09-18T14:11:15.979Z,23.89
2022-09-18T14:13:56.090Z,25.03
2022-09-18T14:16:33.447Z,24.54
2022-09-18T14:19:32.815Z,24.05
2022-09-18T14:22:04.392Z,23.79
2022-09-18T14:24:39.633Z,23.02
2022-09-18T14:28:01.335Z,22.46
2022-09-18T14:30:31.909Z,22.12
2022-09-18T14:33:12.123Z,21.93
2022-09-18T14:38:57.172Z,20.83
2022-09-18T14:41:33.714Z,20.52
2022-09-18T14:44:07.099Z,19.86
2022-09-18T14:46:38.919Z,19.79
2022-09-18T14:49:37.322Z,19.11
2022-09-18T14:52:23.408Z,19.21
2022-09-18T14:55:11.984Z,18.87
2022-09-18T14:58:06.883Z,18.25
2022-09-18T15:00:47.172Z,17.22
2022-09-18T15:03:29.880Z,16.95
2022-09-18T15:06:30.290Z,16.64
2022-09-18T15:08:59.183Z,16.72
2022-09-18T15:11:46.681Z,16.79
2022-09-18T15:14:23.513Z,17.09
2022-09-18T15:17:03.673Z,17.88
2022-09-18T15:19:37.464Z,18.44
2022-09-18T15:22:22.298Z,18.57
2022-09-18T15:24:55.572Z,18.32
2022-09-18T15:27:26.676Z,18.21
2022-09-18T15:30:11.615Z,18.03
2022-09-18T15:32:46.458Z,18.16
2022-09-18T15:35:28.646Z,18.01
2022-09-18T15:38:22.016Z,17.68
2022-09-18T15:40:59.756Z,17.59
2022-09-18T15:43:44.824Z,17.02
2022-09-18T15:46:44.813Z,17.10
2022-09-18T15:49:40.942Z,16.93
2022-09-18T15:52:55.725Z,16.86
2022-09-18T15:55:54.022Z,17.02
2022-09-18T15:58:54.426Z,17.65
2022-09-18T16:01:32.289Z,17.83
2022-09-18T16:04:33.551Z,17.48
2022-09-18T16:07:29.044Z,17.35
2022-09-18T16:10:02.731Z,17.37
2022-09-18T16:12:40.380Z,17.15
2022-09-18T16:16:00.580Z,16.88
2022-09-18T16:18:40.523Z,16.93
2022-09-18T16:21:22.973Z,16.81
2022-09-18T16:24:08.468Z,16.99
2022-09-18T16:26:40.749Z,16.84
2022-09-18T16:29:22.737Z,16.55
2022-09-18T16:31:53.048Z,16.47
2022-09-18T16:34:22.873Z,16.38
2022-09-18T16:37:05.427Z,16.31
2022-09-18T16:39:42.235Z,16.20
2022-09-18T16:42:31.737Z,16.16
2022-09-18T16:45:02.758Z,15.90
2022-09-18T16:47:33.364Z,15.63
2022-09-18T16:50:02.263Z,15.64
2022-09-18T16:52:34.207Z,15.58
2022-09-18T16:55:02.040Z,15.71
2022-09-18T16:57:40.360Z,15.36
2022-09-18T17:00:11.051Z,15.40
2022-09-18T17:02:42.079Z,15.33
2022-09-18T17:05:10.108Z,15.39
2022-09-18T17:07:38.479Z,15.19
2022-09-18T17:10:13.305Z,15.21
2022-09-18T17:12:43.147Z,15.13
2022-09-18T17:15:14.157Z,15.10
2022-09-18T17:17:41.993Z,15.22
2022-09-18T17:20:30.408Z,15.19
2022-09-18T17:23:03.847Z,14.98
2022-09-18T17:25:31.232Z,15.11
2022-09-18T17:28:05.382Z,15.04
2022-09-18T17:30:37.718Z,15.19
2022-09-18T17:33:18.568Z,15.13
2022-09-18T17:35:47.831Z,15.05
2022-09-18T17:38:23.846Z,14.87
2022-09-18T17:41:05.897Z,14.76
2022-09-18T17:43:38.415Z,14.54
2022-09-18T17:46:14.936Z,14.63
2022-09-18T17:48:44.928Z,14.63
2022-09-18T17:51:20.869Z,14.46
2022-09-18T17:53:59.171Z,14.33
2022-09-18T17:56:34.080Z,14.41
2022-09-18T17:59:12.566Z,14.46
2022-09-18T18:04:16.878Z,14.65
2022-09-18T18:06:49.192Z,14.57
2022-09-18T18:09:20.704Z,14.65
2022-09-18T18:11:48.861Z,14.45
2022-09-18T18:14:16.462Z,14.18
2022-09-18T18:16:44.461Z,14.11
2022-09-18T18:19:13.717Z,14.10
2022-09-18T18:21:44.338Z,14.03
2022-09-18T18:24:16.627Z,14.07
2022-09-18T18:26:51.540Z,14.04
2022-09-18T18:29:21.627Z,13.87
2022-09-18T18:31:52.316Z,13.96
2022-09-18T18:34:25.519Z,13.84
2022-09-18T18:36:53.250Z,13.98
2022-09-18T18:39:21.541Z,14.08
2022-09-18T18:41:50.066Z,14.03
2022-09-18T18:44:18.706Z,14.06
2022-09-18T18:46:47.736Z,14.04
2022-09-18T18:49:19.146Z,13.98
2022-09-18T18:51:49.347Z,14.04
2022-09-18T18:54:26.605Z,13.98
2022-09-18T18:56:54.969Z,14.13
2022-09-18T18:59:24.514Z,14.00
2022-09-18T19:01:59.189Z,14.08
2022-09-18T19:04:27.625Z,14.00
2022-09-18T19:06:58.626Z,14.02
2022-09-18T19:09:31.184Z,13.88
2022-09-18T19:12:01.065Z,13.82
2022-09-18T19:14:34.796Z,13.59
2022-09-18T19:17:02.416Z,13.53
2022-09-18T19:19:32.864Z,13.54
2022-09-18T19:22:02.886Z,13.52
2022-09-18T19:24:31.893Z,13.75
2022-09-18T19:27:04.184Z,13.31
2022-09-18T19:29:32.115Z,13.37
2022-09-18T19:32:03.365Z,13.33
2022-09-18T19:34:47.175Z,13.40
2022-09-18T19:37:18.343Z,13.51
2022-09-18T19:39:49.556Z,13.33
2022-09-18T19:42:19.586Z,13.25
2022-09-18T19:44:52.456Z,13.18
2022-09-18T19:47:40.165Z,13.19
2022-09-18T19:50:24.833Z,13.19
2022-09-18T19:52:52.463Z,13.27
2022-09-18T19:55:22.195Z,13.16
2022-09-18T19:57:53.405Z,13.16
2022-09-18T20:00:22.002Z,13.10
2022-09-18T20:02:55.513Z,13.00
2022-09-18T20:05:23.186Z,13.19
2022-09-18T20:07:50.951Z,13.07
2022-09-18T20:10:23.194Z,13.16
2022-09-18T20:12:52.726Z,13.16
2022-09-18T20:15:23.257Z,13.11
2022-09-18T20:17:57.083Z,13.04
2022-09-18T20:20:28.831Z,13.05
2022-09-18T20:22:59.098Z,13.05
2022-09-18T20:25:29.467Z,13.07
2022-09-18T20:27:59.346Z,13.08
2022-09-18T20:30:32.767Z,13.10
2022-09-18T20:33:06.447Z,13.05
2022-09-18T20:35:38.335Z,13.16
2022-09-18T20:38:08.781Z,13.20
2022-09-18T20:40:36.508Z,13.32
2022-09-18T20:43:04.541Z,13.33
2022-09-18T20:45:31.945Z,13.24
2022-09-18T20:47:59.745Z,13.22
2022-09-18T20:50:28.386Z,13.28
2022-09-18T20:52:56.265Z,13.42
2022-09-18T20:55:26.392Z,13.43
2022-09-18T20:57:53.810Z,13.41
2022-09-18T21:00:25.663Z,13.44
2022-09-18T21:02:56.423Z,13.56
2022-09-18T21:05:23.985Z,13.70
2022-09-18T21:07:57.330Z,13.68
2022-09-18T21:10:24.943Z,13.43
2022-09-18T21:12:52.047Z,13.54
2022-09-18T21:15:22.053Z,13.55
2022-09-18T21:17:52.415Z,13.54
2022-09-18T21:20:25.782Z,13.78
2022-09-18T21:23:11.878Z,13.80
2022-09-18T21:25:39.247Z,13.78
2022-09-18T21:28:07.008Z,13.85
2022-09-18T21:30:36.738Z,13.85
2022-09-18T21:33:04.510Z,13.86
2022-09-18T21:35:31.903Z,13.73
2022-09-18T21:37:59.488Z,13.83
2022-09-18T21:40:28.148Z,13.73
2022-09-18T21:43:00.392Z,13.85
2022-09-18T21:45:27.915Z,13.94
2022-09-18T21:47:55.635Z,14.01
2022-09-18T21:50:27.610Z,14.00
2022-09-18T21:53:00.201Z,13.85
2022-09-18T21:55:37.068Z,13.85
2022-09-18T21:58:06.117Z,13.92
2022-09-18T22:00:38.512Z,14.08
2022-09-18T22:03:06.635Z,14.05
2022-09-18T22:05:38.828Z,14.02
2022-09-18T22:08:13.800Z,14.09
2022-09-18T22:11:37.901Z,14.08
2022-09-18T22:14:15.378Z,13.92
2022-09-18T22:16:47.280Z,13.92
2022-09-18T22:19:17.560Z,13.93
2022-09-18T22:21:51.936Z,13.66
2022-09-18T22:24:23.591Z,13.68
2022-09-18T22:27:06.295Z,13.65
2022-09-18T22:29:41.381Z,13.82
2022-09-18T22:32:11.882Z,13.82
2022-09-18T22:34:43.305Z,13.75
2022-09-18T22:37:18.892Z,13.79
2022-09-18T22:39:47.120Z,13.65
2022-09-18T22:42:27.618Z,13.70
2022-09-18T22:44:57.834Z,13.53
2022-09-18T22:47:25.045Z,13.53
2022-09-18T22:49:57.477Z,13.49
2022-09-18T22:52:35.294Z,13.52
2022-09-18T22:55:05.928Z,13.49
2022-09-18T22:57:38.867Z,13.39
2022-09-18T23:00:14.651Z,13.56
2022-09-18T23:02:46.630Z,13.55
2022-09-18T23:05:19.777Z,13.56
2022-09-18T23:07:50.250Z,13.65
2022-09-18T23:10:18.131Z,13.55
2022-09-18T23:12:48.437Z,13.68
2022-09-18T23:15:18.515Z,13.76
2022-09-18T23:17:56.525Z,13.74
2022-09-18T23:20:35.373Z,13.86
2022-09-18T23:23:03.054Z,13.87
2022-09-18T23:25:41.471Z,13.77
2022-09-18T23:28:13.595Z,13.79
2022-09-18T23:30:46.409Z,13.88
2022-09-18T23:33:16.505Z,13.61
2022-09-18T23:35:47.232Z,13.81
2022-09-18T23:38:16.639Z,13.78
2022-09-18T23:40:44.097Z,13.49
2022-09-18T23:43:20.236Z,13.67
2022-09-18T23:45:49.585Z,13.71
2022-09-18T23:48:19.585Z,13.88
2022-09-18T23:50:56.841Z,13.99
2022-09-18T23:53:24.835Z,13.93
2022-09-18T23:56:08.651Z,14.04
2022-09-18T23:58:48.624Z,14.02
